sensor_id;sensor_type;location;lat;lon;timestamp;P1;durP1;ratioP1;P2;durP2;ratioP2
54452;SDS011;40363;52.270;10.546;2023-08-21T00:01:06;6.05;;;4.22;;
54452;SDS011;40363;52.270;10.546;2023-08-21T00:03:32;6.38;;;4.18;;
54452;SDS011;40363;52.270;10.546;2023-08-21T00:05:59;4.85;;;3.53;;
54452;SDS011;40363;52.270;10.546;2023-08-21T00:08:25;8.18;;;4.28;;
54452;SDS011;40363;52.270;10.546;2023-08-21T00:10:52;6.57;;;4.65;;
54452;SDS011;40363;52.270;10.546;2023-08-21T00:13:19;6.25;;;4.50;;
54452;SDS011;40363;52.270;10.546;2023-08-21T00:15:45;6.60;;;3.78;;
54452;SDS011;40363;52.270;10.546;2023-08-21T00:18:13;9.43;;;4.05;;
54452;SDS011;40363;52.270;10.546;2023-08-21T00:20:40;6.75;;;4.68;;
54452;SDS011;40363;52.270;10.546;2023-08-21T00:23:08;8.25;;;4.07;;
54452;SDS011;40363;52.270;10.546;2023-08-21T00:25:34;6.68;;;3.60;;
54452;SDS011;40363;52.270;10.546;2023-08-21T00:28:01;8.45;;;4.28;;
54452;SDS011;40363;52.270;10.546;2023-08-21T00:30:28;7.47;;;4.43;;
54452;SDS011;40363;52.270;10.546;2023-08-21T00:32:54;7.20;;;4.25;;
54452;SDS011;40363;52.270;10.546;2023-08-21T00:35:22;6.57;;;4.25;;
54452;SDS011;40363;52.270;10.546;2023-08-21T00:37:49;5.53;;;4.15;;
54452;SDS011;40363;52.270;10.546;2023-08-21T00:40:16;6.72;;;4.57;;
54452;SDS011;40363;52.270;10.546;2023-08-21T00:42:43;5.45;;;4.13;;
54452;SDS011;40363;52.270;10.546;2023-08-21T00:45:09;7.93;;;4.65;;
54452;SDS011;40363;52.270;10.546;2023-08-21T00:47:36;8.77;;;4.70;;
54452;SDS011;40363;52.270;10.546;2023-08-21T00:50:04;4.88;;;3.97;;
54452;SDS011;40363;52.270;10.546;2023-08-21T00:52:34;5.40;;;3.90;;
54452;SDS011;40363;52.270;10.546;2023-08-21T00:55:02;8.32;;;4.40;;
54452;SDS011;40363;52.270;10.546;2023-08-21T00:57:29;6.15;;;5.00;;
54452;SDS011;40363;52.270;10.546;2023-08-21T00:59:56;6.47;;;4.15;;
54452;SDS011;40363;52.270;10.546;2023-08-21T01:02:23;7.22;;;4.97;;
54452;SDS011;40363;52.270;10.546;2023-08-21T01:04:49;6.50;;;3.97;;
54452;SDS011;40363;52.270;10.546;2023-08-21T01:07:16;8.13;;;4.00;;
54452;SDS011;40363;52.270;10.546;2023-08-21T01:09:45;5.65;;;4.63;;
54452;SDS011;40363;52.270;10.546;2023-08-21T01:12:19;7.72;;;5.13;;
54452;SDS011;40363;52.270;10.546;2023-08-21T01:14:53;4.90;;;4.07;;
54452;SDS011;40363;52.270;10.546;2023-08-21T01:17:25;6.38;;;4.63;;
54452;SDS011;40363;52.270;10.546;2023-08-21T01:19:54;6.03;;;3.92;;
54452;SDS011;40363;52.270;10.546;2023-08-21T01:22:25;6.63;;;4.68;;
54452;SDS011;40363;52.270;10.546;2023-08-21T01:24:53;8.93;;;4.82;;
54452;SDS011;40363;52.270;10.546;2023-08-21T01:27:20;7.78;;;4.55;;
54452;SDS011;40363;52.270;10.546;2023-08-21T01:29:47;6.68;;;4.57;;
54452;SDS011;40363;52.270;10.546;2023-08-21T01:32:16;5.35;;;4.40;;
54452;SDS011;40363;52.270;10.546;2023-08-21T01:34:47;6.63;;;5.07;;
54452;SDS011;40363;52.270;10.546;2023-08-21T01:37:17;7.38;;;4.43;;
54452;SDS011;40363;52.270;10.546;2023-08-21T01:39:44;7.85;;;4.82;;
54452;SDS011;40363;52.270;10.546;2023-08-21T01:42:12;8.35;;;5.13;;
54452;SDS011;40363;52.270;10.546;2023-08-21T01:44:39;6.25;;;4.65;;
54452;SDS011;40363;52.270;10.546;2023-08-21T01:47:05;6.70;;;4.82;;
54452;SDS011;40363;52.270;10.546;2023-08-21T01:49:33;7.97;;;5.68;;
54452;SDS011;40363;52.270;10.546;2023-08-21T01:51:59;6.32;;;5.15;;
54452;SDS011;40363;52.270;10.546;2023-08-21T01:54:26;5.95;;;5.03;;
54452;SDS011;40363;52.270;10.546;2023-08-21T01:56:52;12.07;;;5.88;;
54452;SDS011;40363;52.270;10.546;2023-08-21T01:59:21;6.90;;;5.07;;
54452;SDS011;40363;52.270;10.546;2023-08-21T02:01:48;6.10;;;5.15;;
54452;SDS011;40363;52.270;10.546;2023-08-21T02:04:14;8.13;;;5.78;;
54452;SDS011;40363;52.270;10.546;2023-08-21T02:06:41;5.53;;;4.93;;
54452;SDS011;40363;52.270;10.546;2023-08-21T02:09:09;7.00;;;4.90;;
54452;SDS011;40363;52.270;10.546;2023-08-21T02:11:35;8.82;;;5.07;;
54452;SDS011;40363;52.270;10.546;2023-08-21T02:14:02;7.65;;;5.90;;
54452;SDS011;40363;52.270;10.546;2023-08-21T02:16:30;5.95;;;4.43;;
54452;SDS011;40363;52.270;10.546;2023-08-21T02:18:58;6.00;;;4.75;;
54452;SDS011;40363;52.270;10.546;2023-08-21T02:21:25;8.30;;;5.20;;
54452;SDS011;40363;52.270;10.546;2023-08-21T02:23:51;7.53;;;5.40;;
54452;SDS011;40363;52.270;10.546;2023-08-21T02:26:18;8.10;;;4.85;;
54452;SDS011;40363;52.270;10.546;2023-08-21T02:28:45;8.52;;;5.75;;
54452;SDS011;40363;52.270;10.546;2023-08-21T02:31:12;9.02;;;5.15;;
54452;SDS011;40363;52.270;10.546;2023-08-21T02:33:40;8.85;;;6.38;;
54452;SDS011;40363;52.270;10.546;2023-08-21T02:36:06;9.38;;;5.50;;
54452;SDS011;40363;52.270;10.546;2023-08-21T02:38:33;8.88;;;5.07;;
54452;SDS011;40363;52.270;10.546;2023-08-21T02:41:00;6.70;;;5.68;;
54452;SDS011;40363;52.270;10.546;2023-08-21T02:43:27;6.22;;;5.45;;
54452;SDS011;40363;52.270;10.546;2023-08-21T02:45:53;7.43;;;5.45;;
54452;SDS011;40363;52.270;10.546;2023-08-21T02:48:20;10.55;;;5.85;;
54452;SDS011;40363;52.270;10.546;2023-08-21T02:50:48;7.43;;;5.22;;
54452;SDS011;40363;52.270;10.546;2023-08-21T02:53:15;7.50;;;5.38;;
54452;SDS011;40363;52.270;10.546;2023-08-21T02:55:41;7.40;;;4.90;;
54452;SDS011;40363;52.270;10.546;2023-08-21T02:58:08;9.40;;;5.25;;
54452;SDS011;40363;52.270;10.546;2023-08-21T03:00:35;8.02;;;5.32;;
54452;SDS011;40363;52.270;10.546;2023-08-21T03:03:02;6.20;;;5.18;;
54452;SDS011;40363;52.270;10.546;2023-08-21T03:05:29;7.30;;;5.25;;
54452;SDS011;40363;52.270;10.546;2023-08-21T03:07:57;14.77;;;6.25;;
54452;SDS011;40363;52.270;10.546;2023-08-21T03:10:24;10.00;;;6.25;;
54452;SDS011;40363;52.270;10.546;2023-08-21T03:12:52;6.75;;;5.47;;
54452;SDS011;40363;52.270;10.546;2023-08-21T03:15:19;8.90;;;6.13;;
54452;SDS011;40363;52.270;10.546;2023-08-21T03:17:45;11.88;;;5.65;;
54452;SDS011;40363;52.270;10.546;2023-08-21T03:20:12;8.98;;;5.93;;
54452;SDS011;40363;52.270;10.546;2023-08-21T03:22:38;6.00;;;5.10;;
54452;SDS011;40363;52.270;10.546;2023-08-21T03:25:07;7.55;;;5.70;;
54452;SDS011;40363;52.270;10.546;2023-08-21T03:27:34;6.95;;;5.72;;
54452;SDS011;40363;52.270;10.546;2023-08-21T03:30:04;9.45;;;5.78;;
54452;SDS011;40363;52.270;10.546;2023-08-21T03:32:32;8.00;;;5.78;;
54452;SDS011;40363;52.270;10.546;2023-08-21T03:34:59;6.95;;;5.70;;
54452;SDS011;40363;52.270;10.546;2023-08-21T03:37:26;7.57;;;5.63;;
54452;SDS011;40363;52.270;10.546;2023-08-21T03:39:52;7.68;;;6.32;;
54452;SDS011;40363;52.270;10.546;2023-08-21T03:42:20;9.63;;;5.78;;
54452;SDS011;40363;52.270;10.546;2023-08-21T03:44:47;10.13;;;5.72;;
54452;SDS011;40363;52.270;10.546;2023-08-21T03:47:15;7.78;;;6.40;;
54452;SDS011;40363;52.270;10.546;2023-08-21T03:49:42;6.80;;;6.10;;
54452;SDS011;40363;52.270;10.546;2023-08-21T03:52:08;9.25;;;6.53;;
54452;SDS011;40363;52.270;10.546;2023-08-21T03:54:35;10.68;;;6.18;;
54452;SDS011;40363;52.270;10.546;2023-08-21T03:57:02;9.57;;;6.60;;
54452;SDS011;40363;52.270;10.546;2023-08-21T03:59:30;6.65;;;5.88;;
54452;SDS011;40363;52.270;10.546;2023-08-21T04:01:57;9.23;;;6.90;;
54452;SDS011;40363;52.270;10.546;2023-08-21T04:04:23;7.95;;;7.15;;
54452;SDS011;40363;52.270;10.546;2023-08-21T04:06:50;7.50;;;6.10;;
54452;SDS011;40363;52.270;10.546;2023-08-21T04:09:17;7.00;;;6.30;;
54452;SDS011;40363;52.270;10.546;2023-08-21T04:11:43;9.38;;;5.93;;
54452;SDS011;40363;52.270;10.546;2023-08-21T04:14:10;8.68;;;5.60;;
54452;SDS011;40363;52.270;10.546;2023-08-21T04:16:38;7.20;;;6.25;;
54452;SDS011;40363;52.270;10.546;2023-08-21T04:19:05;10.77;;;6.10;;
54452;SDS011;40363;52.270;10.546;2023-08-21T04:21:31;7.78;;;6.00;;
54452;SDS011;40363;52.270;10.546;2023-08-21T04:23:58;8.55;;;6.43;;
54452;SDS011;40363;52.270;10.546;2023-08-21T04:26:25;7.88;;;5.97;;
54452;SDS011;40363;52.270;10.546;2023-08-21T04:28:52;11.00;;;6.28;;
54452;SDS011;40363;52.270;10.546;2023-08-21T04:31:19;8.80;;;6.18;;
54452;SDS011;40363;52.270;10.546;2023-08-21T04:33:47;6.60;;;5.47;;
54452;SDS011;40363;52.270;10.546;2023-08-21T04:36:14;8.45;;;5.85;;
54452;SDS011;40363;52.270;10.546;2023-08-21T04:38:41;6.65;;;5.95;;
54452;SDS011;40363;52.270;10.546;2023-08-21T04:41:08;9.18;;;5.65;;
54452;SDS011;40363;52.270;10.546;2023-08-21T04:43:35;10.27;;;5.45;;
54452;SDS011;40363;52.270;10.546;2023-08-21T04:46:02;6.50;;;5.20;;
54452;SDS011;40363;52.270;10.546;2023-08-21T04:48:30;9.57;;;5.75;;
54452;SDS011;40363;52.270;10.546;2023-08-21T04:50:58;9.77;;;5.80;;
54452;SDS011;40363;52.270;10.546;2023-08-21T04:53:34;8.50;;;5.93;;
54452;SDS011;40363;52.270;10.546;2023-08-21T04:56:01;7.93;;;5.65;;
54452;SDS011;40363;52.270;10.546;2023-08-21T04:58:28;6.95;;;5.07;;
54452;SDS011;40363;52.270;10.546;2023-08-21T05:00:55;11.73;;;5.57;;
54452;SDS011;40363;52.270;10.546;2023-08-21T05:03:21;10.15;;;5.88;;
54452;SDS011;40363;52.270;10.546;2023-08-21T05:05:54;8.10;;;5.43;;
54452;SDS011;40363;52.270;10.546;2023-08-21T05:08:23;7.65;;;5.53;;
54452;SDS011;40363;52.270;10.546;2023-08-21T05:10:53;9.57;;;6.28;;
54452;SDS011;40363;52.270;10.546;2023-08-21T05:13:21;9.13;;;5.75;;
54452;SDS011;40363;52.270;10.546;2023-08-21T05:15:50;9.32;;;5.82;;
54452;SDS011;40363;52.270;10.546;2023-08-21T05:18:17;7.72;;;5.70;;
54452;SDS011;40363;52.270;10.546;2023-08-21T05:20:44;9.70;;;5.63;;
54452;SDS011;40363;52.270;10.546;2023-08-21T05:23:10;8.18;;;5.80;;
54452;SDS011;40363;52.270;10.546;2023-08-21T05:25:38;11.25;;;5.75;;
54452;SDS011;40363;52.270;10.546;2023-08-21T05:28:05;8.15;;;5.78;;
54452;SDS011;40363;52.270;10.546;2023-08-21T05:30:32;12.18;;;5.80;;
54452;SDS011;40363;52.270;10.546;2023-08-21T05:33:00;6.88;;;5.18;;
54452;SDS011;40363;52.270;10.546;2023-08-21T05:35:27;10.23;;;5.30;;
54452;SDS011;40363;52.270;10.546;2023-08-21T05:37:54;6.70;;;4.55;;
54452;SDS011;40363;52.270;10.546;2023-08-21T05:40:20;6.88;;;4.75;;
54452;SDS011;40363;52.270;10.546;2023-08-21T05:42:48;6.80;;;4.50;;
54452;SDS011;40363;52.270;10.546;2023-08-21T05:45:15;7.40;;;5.30;;
54452;SDS011;40363;52.270;10.546;2023-08-21T05:47:42;7.82;;;4.72;;
54452;SDS011;40363;52.270;10.546;2023-08-21T05:50:08;8.40;;;4.82;;
54452;SDS011;40363;52.270;10.546;2023-08-21T05:52:35;8.13;;;4.95;;
54452;SDS011;40363;52.270;10.546;2023-08-21T05:55:02;8.93;;;5.15;;
54452;SDS011;40363;52.270;10.546;2023-08-21T05:57:29;7.53;;;5.57;;
54452;SDS011;40363;52.270;10.546;2023-08-21T05:59:57;8.13;;;4.80;;
54452;SDS011;40363;52.270;10.546;2023-08-21T06:02:24;11.13;;;5.50;;
54452;SDS011;40363;52.270;10.546;2023-08-21T06:04:51;14.38;;;5.47;;
54452;SDS011;40363;52.270;10.546;2023-08-21T06:07:17;8.48;;;5.50;;
54452;SDS011;40363;52.270;10.546;2023-08-21T06:09:44;9.00;;;4.47;;
54452;SDS011;40363;52.270;10.546;2023-08-21T06:12:11;13.23;;;5.57;;
54452;SDS011;40363;52.270;10.546;2023-08-21T06:14:37;7.75;;;4.30;;
54452;SDS011;40363;52.270;10.546;2023-08-21T06:17:05;9.63;;;4.97;;
54452;SDS011;40363;52.270;10.546;2023-08-21T06:19:32;6.68;;;4.60;;
54452;SDS011;40363;52.270;10.546;2023-08-21T06:21:58;7.22;;;4.60;;
54452;SDS011;40363;52.270;10.546;2023-08-21T06:24:25;6.43;;;4.95;;
54452;SDS011;40363;52.270;10.546;2023-08-21T06:26:52;5.93;;;4.43;;
54452;SDS011;40363;52.270;10.546;2023-08-21T06:29:19;8.07;;;4.47;;
54452;SDS011;40363;52.270;10.546;2023-08-21T06:31:46;9.63;;;4.63;;
54452;SDS011;40363;52.270;10.546;2023-08-21T06:34:14;9.00;;;4.80;;
54452;SDS011;40363;52.270;10.546;2023-08-21T06:36:41;9.00;;;4.75;;
54452;SDS011;40363;52.270;10.546;2023-08-21T06:39:08;12.18;;;4.43;;
54452;SDS011;40363;52.270;10.546;2023-08-21T06:41:35;8.35;;;4.03;;
54452;SDS011;40363;52.270;10.546;2023-08-21T06:44:02;19.73;;;4.60;;
54452;SDS011;40363;52.270;10.546;2023-08-21T06:46:29;8.60;;;4.63;;
54452;SDS011;40363;52.270;10.546;2023-08-21T06:48:56;4.53;;;3.70;;
54452;SDS011;40363;52.270;10.546;2023-08-21T06:51:24;6.57;;;3.63;;
54452;SDS011;40363;52.270;10.546;2023-08-21T06:53:51;9.20;;;4.05;;
54452;SDS011;40363;52.270;10.546;2023-08-21T06:56:18;4.93;;;3.53;;
54452;SDS011;40363;52.270;10.546;2023-08-21T06:58:44;7.22;;;3.67;;
54452;SDS011;40363;52.270;10.546;2023-08-21T07:01:11;4.82;;;3.25;;
54452;SDS011;40363;52.270;10.546;2023-08-21T07:03:37;7.47;;;3.30;;
54452;SDS011;40363;52.270;10.546;2023-08-21T07:06:04;5.53;;;3.75;;
54452;SDS011;40363;52.270;10.546;2023-08-21T07:08:32;5.63;;;3.08;;
54452;SDS011;40363;52.270;10.546;2023-08-21T07:11:01;3.80;;;2.78;;
54452;SDS011;40363;52.270;10.546;2023-08-21T07:13:29;4.35;;;3.22;;
54452;SDS011;40363;52.270;10.546;2023-08-21T07:15:56;5.03;;;2.60;;
54452;SDS011;40363;52.270;10.546;2023-08-21T07:18:23;5.57;;;3.15;;
54452;SDS011;40363;52.270;10.546;2023-08-21T07:20:51;6.90;;;2.45;;
54452;SDS011;40363;52.270;10.546;2023-08-21T07:23:18;5.95;;;2.85;;
54452;SDS011;40363;52.270;10.546;2023-08-21T07:25:46;3.33;;;2.38;;
54452;SDS011;40363;52.270;10.546;2023-08-21T07:28:13;3.97;;;2.38;;
54452;SDS011;40363;52.270;10.546;2023-08-21T07:30:39;4.57;;;2.22;;
54452;SDS011;40363;52.270;10.546;2023-08-21T07:33:06;3.13;;;2.08;;
54452;SDS011;40363;52.270;10.546;2023-08-21T07:35:32;6.53;;;2.00;;
54452;SDS011;40363;52.270;10.546;2023-08-21T07:37:59;3.80;;;2.40;;
54452;SDS011;40363;52.270;10.546;2023-08-21T07:40:26;3.85;;;1.83;;
54452;SDS011;40363;52.270;10.546;2023-08-21T07:42:54;3.33;;;1.90;;
54452;SDS011;40363;52.270;10.546;2023-08-21T07:45:20;3.15;;;1.55;;
54452;SDS011;40363;52.270;10.546;2023-08-21T07:47:47;6.07;;;1.92;;
54452;SDS011;40363;52.270;10.546;2023-08-21T07:50:14;3.17;;;1.63;;
54452;SDS011;40363;52.270;10.546;2023-08-21T07:52:42;4.40;;;1.60;;
54452;SDS011;40363;52.270;10.546;2023-08-21T07:55:08;4.43;;;1.92;;
54452;SDS011;40363;52.270;10.546;2023-08-21T07:57:35;6.13;;;2.67;;
54452;SDS011;40363;52.270;10.546;2023-08-21T08:00:03;5.13;;;1.65;;
54452;SDS011;40363;52.270;10.546;2023-08-21T08:02:33;4.18;;;1.80;;
54452;SDS011;40363;52.270;10.546;2023-08-21T08:05:00;3.08;;;1.60;;
54452;SDS011;40363;52.270;10.546;2023-08-21T08:07:27;3.45;;;2.00;;
54452;SDS011;40363;52.270;10.546;2023-08-21T08:09:54;4.10;;;2.00;;
54452;SDS011;40363;52.270;10.546;2023-08-21T08:12:21;5.90;;;2.08;;
54452;SDS011;40363;52.270;10.546;2023-08-21T08:14:47;4.63;;;1.85;;
54452;SDS011;40363;52.270;10.546;2023-08-21T08:17:15;6.60;;;2.00;;
54452;SDS011;40363;52.270;10.546;2023-08-21T08:19:42;4.03;;;2.13;;
54452;SDS011;40363;52.270;10.546;2023-08-21T08:22:08;5.38;;;1.92;;
54452;SDS011;40363;52.270;10.546;2023-08-21T08:24:35;5.45;;;1.88;;
54452;SDS011;40363;52.270;10.546;2023-08-21T08:27:01;2.78;;;1.73;;
54452;SDS011;40363;52.270;10.546;2023-08-21T08:29:29;4.32;;;1.58;;
54452;SDS011;40363;52.270;10.546;2023-08-21T08:31:56;5.18;;;1.70;;
54452;SDS011;40363;52.270;10.546;2023-08-21T08:34:23;4.97;;;1.42;;
54452;SDS011;40363;52.270;10.546;2023-08-21T08:36:50;3.85;;;1.60;;
54452;SDS011;40363;52.270;10.546;2023-08-21T08:39:17;4.75;;;1.40;;
54452;SDS011;40363;52.270;10.546;2023-08-21T08:41:44;4.88;;;1.15;;
54452;SDS011;40363;52.270;10.546;2023-08-21T08:44:16;5.38;;;2.58;;
54452;SDS011;40363;52.270;10.546;2023-08-21T08:46:43;3.50;;;1.52;;
54452;SDS011;40363;52.270;10.546;2023-08-21T08:49:10;2.50;;;1.60;;
54452;SDS011;40363;52.270;10.546;2023-08-21T08:51:38;8.73;;;1.60;;
54452;SDS011;40363;52.270;10.546;2023-08-21T08:54:06;4.80;;;1.85;;
54452;SDS011;40363;52.270;10.546;2023-08-21T08:56:33;4.57;;;1.80;;
54452;SDS011;40363;52.270;10.546;2023-08-21T08:59:00;4.20;;;1.70;;
54452;SDS011;40363;52.270;10.546;2023-08-21T09:01:27;6.53;;;1.95;;
54452;SDS011;40363;52.270;10.546;2023-08-21T09:03:54;2.85;;;1.88;;
54452;SDS011;40363;52.270;10.546;2023-08-21T09:06:21;6.10;;;2.17;;
54452;SDS011;40363;52.270;10.546;2023-08-21T09:08:55;2.42;;;1.58;;
54452;SDS011;40363;52.270;10.546;2023-08-21T09:11:23;4.10;;;1.50;;
54452;SDS011;40363;52.270;10.546;2023-08-21T09:13:50;4.85;;;2.10;;
54452;SDS011;40363;52.270;10.546;2023-08-21T09:16:18;3.80;;;1.60;;
54452;SDS011;40363;52.270;10.546;2023-08-21T09:18:48;5.22;;;1.83;;
54452;SDS011;40363;52.270;10.546;2023-08-21T09:21:16;4.45;;;1.80;;
54452;SDS011;40363;52.270;10.546;2023-08-21T09:23:43;4.60;;;1.70;;
54452;SDS011;40363;52.270;10.546;2023-08-21T09:26:12;5.03;;;2.17;;
54452;SDS011;40363;52.270;10.546;2023-08-21T09:31:12;3.85;;;1.65;;
54452;SDS011;40363;52.270;10.546;2023-08-21T09:33:38;3.17;;;1.70;;
54452;SDS011;40363;52.270;10.546;2023-08-21T09:36:05;3.20;;;1.30;;
54452;SDS011;40363;52.270;10.546;2023-08-21T09:38:33;3.88;;;1.92;;
54452;SDS011;40363;52.270;10.546;2023-08-21T09:41:00;4.20;;;2.03;;
54452;SDS011;40363;52.270;10.546;2023-08-21T09:43:28;4.25;;;1.73;;
54452;SDS011;40363;52.270;10.546;2023-08-21T09:45:55;3.38;;;1.63;;
54452;SDS011;40363;52.270;10.546;2023-08-21T09:48:22;3.10;;;1.20;;
54452;SDS011;40363;52.270;10.546;2023-08-21T09:50:51;6.60;;;1.98;;
54452;SDS011;40363;52.270;10.546;2023-08-21T09:53:19;2.63;;;1.33;;
54452;SDS011;40363;52.270;10.546;2023-08-21T09:55:47;2.80;;;1.55;;
54452;SDS011;40363;52.270;10.546;2023-08-21T09:58:15;5.07;;;1.33;;
54452;SDS011;40363;52.270;10.546;2023-08-21T10:00:44;2.65;;;1.60;;
54452;SDS011;40363;52.270;10.546;2023-08-21T10:03:15;2.85;;;1.25;;
54452;SDS011;40363;52.270;10.546;2023-08-21T10:05:46;6.85;;;1.58;;
54452;SDS011;40363;52.270;10.546;2023-08-21T10:08:15;2.90;;;1.83;;
54452;SDS011;40363;52.270;10.546;2023-08-21T10:10:44;4.80;;;1.25;;
54452;SDS011;40363;52.270;10.546;2023-08-21T10:13:11;4.70;;;1.55;;
54452;SDS011;40363;52.270;10.546;2023-08-21T10:15:38;4.93;;;1.50;;
54452;SDS011;40363;52.270;10.546;2023-08-21T10:18:19;4.53;;;1.27;;
54452;SDS011;40363;52.270;10.546;2023-08-21T10:20:47;4.80;;;1.15;;
54452;SDS011;40363;52.270;10.546;2023-08-21T10:23:23;3.72;;;1.10;;
54452;SDS011;40363;52.270;10.546;2023-08-21T10:25:54;3.33;;;1.05;;
54452;SDS011;40363;52.270;10.546;2023-08-21T10:28:21;3.05;;;1.00;;
54452;SDS011;40363;52.270;10.546;2023-08-21T10:30:48;4.45;;;1.17;;
54452;SDS011;40363;52.270;10.546;2023-08-21T10:33:15;3.03;;;0.98;;
54452;SDS011;40363;52.270;10.546;2023-08-21T10:35:43;2.08;;;1.00;;
54452;SDS011;40363;52.270;10.546;2023-08-21T10:38:10;4.72;;;1.35;;
54452;SDS011;40363;52.270;10.546;2023-08-21T10:40:37;6.07;;;1.33;;
54452;SDS011;40363;52.270;10.546;2023-08-21T10:43:14;3.13;;;1.55;;
54452;SDS011;40363;52.270;10.546;2023-08-21T10:46:00;2.90;;;1.10;;
54452;SDS011;40363;52.270;10.546;2023-08-21T10:48:27;5.07;;;1.40;;
54452;SDS011;40363;52.270;10.546;2023-08-21T10:50:55;2.80;;;1.17;;
54452;SDS011;40363;52.270;10.546;2023-08-21T10:53:24;2.75;;;1.45;;
54452;SDS011;40363;52.270;10.546;2023-08-21T10:55:52;11.45;;;1.23;;
54452;SDS011;40363;52.270;10.546;2023-08-21T10:58:20;6.88;;;1.05;;
54452;SDS011;40363;52.270;10.546;2023-08-21T11:00:47;3.70;;;1.73;;
54452;SDS011;40363;52.270;10.546;2023-08-21T11:03:21;2.50;;;1.50;;
54452;SDS011;40363;52.270;10.546;2023-08-21T11:06:00;2.88;;;1.33;;
54452;SDS011;40363;52.270;10.546;2023-08-21T11:08:28;4.40;;;1.45;;
54452;SDS011;40363;52.270;10.546;2023-08-21T11:10:55;2.95;;;1.58;;
54452;SDS011;40363;52.270;10.546;2023-08-21T11:13:23;3.88;;;1.60;;
54452;SDS011;40363;52.270;10.546;2023-08-21T11:15:57;5.80;;;1.35;;
54452;SDS011;40363;52.270;10.546;2023-08-21T11:18:29;5.25;;;1.60;;
54452;SDS011;40363;52.270;10.546;2023-08-21T11:21:04;6.35;;;1.42;;
54452;SDS011;40363;52.270;10.546;2023-08-21T11:23:32;4.63;;;1.20;;
54452;SDS011;40363;52.270;10.546;2023-08-21T11:25:59;6.47;;;1.55;;
54452;SDS011;40363;52.270;10.546;2023-08-21T11:28:26;3.45;;;1.55;;
54452;SDS011;40363;52.270;10.546;2023-08-21T11:30:54;3.78;;;1.23;;
54452;SDS011;40363;52.270;10.546;2023-08-21T11:33:21;1.88;;;1.25;;
54452;SDS011;40363;52.270;10.546;2023-08-21T11:35:48;5.70;;;1.40;;
54452;SDS011;40363;52.270;10.546;2023-08-21T11:38:18;2.58;;;1.20;;
54452;SDS011;40363;52.270;10.546;2023-08-21T11:40:55;3.63;;;1.30;;
54452;SDS011;40363;52.270;10.546;2023-08-21T11:43:33;3.90;;;1.40;;
54452;SDS011;40363;52.270;10.546;2023-08-21T11:46:00;3.28;;;1.30;;
54452;SDS011;40363;52.270;10.546;2023-08-21T11:48:27;3.47;;;1.15;;
54452;SDS011;40363;52.270;10.546;2023-08-21T11:50:54;4.43;;;1.40;;
54452;SDS011;40363;52.270;10.546;2023-08-21T11:53:33;2.97;;;1.10;;
54452;SDS011;40363;52.270;10.546;2023-08-21T11:56:01;2.53;;;0.85;;
54452;SDS011;40363;52.270;10.546;2023-08-21T11:58:28;4.70;;;1.27;;
54452;SDS011;40363;52.270;10.546;2023-08-21T12:00:54;6.10;;;0.98;;
54452;SDS011;40363;52.270;10.546;2023-08-21T12:03:27;3.08;;;1.13;;
54452;SDS011;40363;52.270;10.546;2023-08-21T12:05:54;3.60;;;1.35;;
54452;SDS011;40363;52.270;10.546;2023-08-21T12:08:21;3.83;;;1.30;;
54452;SDS011;40363;52.270;10.546;2023-08-21T12:10:51;2.45;;;1.08;;
54452;SDS011;40363;52.270;10.546;2023-08-21T12:13:18;2.40;;;1.13;;
54452;SDS011;40363;52.270;10.546;2023-08-21T12:15:44;2.58;;;0.98;;
54452;SDS011;40363;52.270;10.546;2023-08-21T12:18:11;5.05;;;0.80;;
54452;SDS011;40363;52.270;10.546;2023-08-21T12:20:37;2.72;;;1.58;;
54452;SDS011;40363;52.270;10.546;2023-08-21T12:23:04;3.22;;;1.00;;
54452;SDS011;40363;52.270;10.546;2023-08-21T12:25:30;2.03;;;1.13;;
54452;SDS011;40363;52.270;10.546;2023-08-21T12:27:59;1.70;;;0.77;;
54452;SDS011;40363;52.270;10.546;2023-08-21T12:30:25;2.67;;;1.02;;
54452;SDS011;40363;52.270;10.546;2023-08-21T12:32:52;1.95;;;0.82;;
54452;SDS011;40363;52.270;10.546;2023-08-21T12:35:19;4.38;;;1.10;;
54452;SDS011;40363;52.270;10.546;2023-08-21T12:37:45;3.85;;;0.90;;
54452;SDS011;40363;52.270;10.546;2023-08-21T12:40:12;2.97;;;0.82;;
54452;SDS011;40363;52.270;10.546;2023-08-21T12:42:39;5.07;;;1.27;;
54452;SDS011;40363;52.270;10.546;2023-08-21T12:45:09;4.05;;;1.08;;
54452;SDS011;40363;52.270;10.546;2023-08-21T12:47:37;2.72;;;0.82;;
54452;SDS011;40363;52.270;10.546;2023-08-21T12:50:04;4.50;;;1.17;;
54452;SDS011;40363;52.270;10.546;2023-08-21T12:52:31;2.85;;;0.77;;
54452;SDS011;40363;52.270;10.546;2023-08-21T12:54:58;1.92;;;1.00;;
54452;SDS011;40363;52.270;10.546;2023-08-21T12:57:28;2.05;;;0.90;;
54452;SDS011;40363;52.270;10.546;2023-08-21T12:59:54;4.97;;;1.10;;
54452;SDS011;40363;52.270;10.546;2023-08-21T13:02:22;3.20;;;1.13;;
54452;SDS011;40363;52.270;10.546;2023-08-21T13:04:52;3.30;;;0.98;;
54452;SDS011;40363;52.270;10.546;2023-08-21T13:07:19;8.70;;;1.48;;
54452;SDS011;40363;52.270;10.546;2023-08-21T13:09:45;7.15;;;2.22;;
54452;SDS011;40363;52.270;10.546;2023-08-21T13:12:12;2.50;;;0.98;;
54452;SDS011;40363;52.270;10.546;2023-08-21T13:14:38;3.80;;;1.52;;
54452;SDS011;40363;52.270;10.546;2023-08-21T13:17:06;3.30;;;0.90;;
54452;SDS011;40363;52.270;10.546;2023-08-21T13:19:34;4.80;;;1.10;;
54452;SDS011;40363;52.270;10.546;2023-08-21T13:22:00;3.45;;;1.23;;
54452;SDS011;40363;52.270;10.546;2023-08-21T13:24:27;2.45;;;1.42;;
54452;SDS011;40363;52.270;10.546;2023-08-21T13:26:55;2.05;;;1.00;;
54452;SDS011;40363;52.270;10.546;2023-08-21T13:29:22;5.38;;;0.90;;
54452;SDS011;40363;52.270;10.546;2023-08-21T13:31:48;2.15;;;0.90;;
54452;SDS011;40363;52.270;10.546;2023-08-21T13:34:15;3.78;;;2.28;;
54452;SDS011;40363;52.270;10.546;2023-08-21T13:36:43;4.35;;;1.10;;
54452;SDS011;40363;52.270;10.546;2023-08-21T13:39:09;5.82;;;1.30;;
54452;SDS011;40363;52.270;10.546;2023-08-21T13:41:38;2.83;;;1.20;;
54452;SDS011;40363;52.270;10.546;2023-08-21T13:44:04;2.75;;;1.65;;
54452;SDS011;40363;52.270;10.546;2023-08-21T13:46:32;6.65;;;1.23;;
54452;SDS011;40363;52.270;10.546;2023-08-21T13:48:59;3.47;;;1.10;;
54452;SDS011;40363;52.270;10.546;2023-08-21T13:51:25;4.00;;;1.45;;
54452;SDS011;40363;52.270;10.546;2023-08-21T13:53:53;3.95;;;1.25;;
54452;SDS011;40363;52.270;10.546;2023-08-21T13:56:20;5.70;;;1.08;;
54452;SDS011;40363;52.270;10.546;2023-08-21T13:58:47;5.65;;;1.17;;
54452;SDS011;40363;52.270;10.546;2023-08-21T14:01:13;2.78;;;1.00;;
54452;SDS011;40363;52.270;10.546;2023-08-21T14:03:40;7.82;;;2.20;;
54452;SDS011;40363;52.270;10.546;2023-08-21T14:06:07;9.15;;;1.75;;
54452;SDS011;40363;52.270;10.546;2023-08-21T14:08:36;5.38;;;1.50;;
54452;SDS011;40363;52.270;10.546;2023-08-21T14:11:04;4.60;;;1.23;;
54452;SDS011;40363;52.270;10.546;2023-08-21T14:13:31;7.97;;;1.30;;
54452;SDS011;40363;52.270;10.546;2023-08-21T14:15:57;4.97;;;1.27;;
54452;SDS011;40363;52.270;10.546;2023-08-21T14:18:24;1.73;;;0.82;;
54452;SDS011;40363;52.270;10.546;2023-08-21T14:20:51;3.30;;;0.90;;
54452;SDS011;40363;52.270;10.546;2023-08-21T14:23:17;4.25;;;1.00;;
54452;SDS011;40363;52.270;10.546;2023-08-21T14:25:44;2.40;;;0.77;;
54452;SDS011;40363;52.270;10.546;2023-08-21T14:28:12;2.67;;;0.98;;
54452;SDS011;40363;52.270;10.546;2023-08-21T14:30:39;4.65;;;1.20;;
54452;SDS011;40363;52.270;10.546;2023-08-21T14:33:05;4.28;;;0.90;;
54452;SDS011;40363;52.270;10.546;2023-08-21T14:35:32;6.43;;;1.05;;
54452;SDS011;40363;52.270;10.546;2023-08-21T14:37:59;2.30;;;1.23;;